Weather History for KTEX - March, 2013

Change the Weather History Date:

Thursday, March 7, 2013

  Actual Average Record
Temperature  
Mean Temperature 40 °F -  
Max Temperature 46 °F 36 °F 48 °F (2004)
Min Temperature 33 °F 15 °F 12 °F (2003)
Degree Days  
Heating Degree Days 26    
Moisture  
Dew Point 7 °F    
Average Humidity 26    
Maximum Humidity 44    
Minimum Humidity 13    
Precipitation  
Precipitation 0.00 in - - ()
Sea Level Pressure  
Sea Level Pressure 30.06 in    
Wind  
Wind Speed 12 mph (SE)    
Max Wind Speed 21 mph    
Max Gust Speed 31 mph    
Visibility 10 miles    
Events      
Averages and records for this station are not official NWS values.
T = Trace of Precipitation, MM = Missing Value Source: NWS Daily Summary

Daily Weather History Graph

Daily Weather History Graph

Search for Another Location

Airport or City:

Trip Planner

Search our weather history database for the weather conditions in past years. The results will help you decide how hot, cold, wet, or windy it might be!

Date:

Astronomy

Mar. 07, 2013 Rise Set
Actual Time 6:34 AM MST 6:11 PM MST
Civil Twilight 6:07 AM MST 6:37 PM MST
Nautical Twilight 5:37 AM MST 7:08 PM MST
Astronomical Twilight 5:07 AM MST 7:38 PM MST
Moon 3:32 AM MST (3/7) 2:05 PM MST (3/7)
Length of Visible Light 12h 29m
Length of Day
11h 37m
Waning Crescent, 19% of the Moon is Illuminated
Mar 7
Waning Crescent
Mar 11
New
Mar 19
First Quarter
Mar 27
Full
Apr 2
Last Quarter

Hourly Weather History & Observations

Time (MST) Temp. Windchill Dew Point Humidity Pressure Visibility Wind Dir Wind Speed Gust Speed Precip Events Conditions
12:15 AM 41.0 °F 32.8 °F 10.4 °F 29% 30.05 in 10.0 mi SE 16.1 mph 26.5 mph N/A   Clear
12:35 AM 41.0 °F 32.5 °F 10.4 °F 29% 30.05 in 10.0 mi SE 17.3 mph 26.5 mph N/A   Clear
12:55 AM 39.2 °F 31.6 °F 12.2 °F 33% 30.06 in 10.0 mi SE 12.7 mph 21.9 mph N/A   Clear
1:15 AM 39.2 °F 30.5 °F 14.0 °F 36% 30.06 in 10.0 mi SE 16.1 mph 31.1 mph N/A   Clear
1:35 AM 37.4 °F 27.5 °F 15.8 °F 41% 30.06 in 10.0 mi ESE 18.4 mph 25.3 mph N/A   Clear
1:55 AM 37.4 °F 28.9 °F 15.8 °F 41% 30.06 in 10.0 mi ESE 13.8 mph 23.0 mph N/A   Clear
2:15 AM 37.4 °F 29.3 °F 14.0 °F 38% 30.06 in 10.0 mi ESE 12.7 mph 21.9 mph N/A   Clear
2:35 AM 37.4 °F 30.8 °F 14.0 °F 38% 30.05 in 10.0 mi SE 9.2 mph 21.9 mph N/A   Clear
2:55 AM 37.4 °F 30.3 °F 14.0 °F 38% 30.05 in 10.0 mi ESE 10.4 mph 24.2 mph N/A   Clear
3:15 AM 37.4 °F 30.3 °F 14.0 °F 38% 30.05 in 10.0 mi ESE 10.4 mph 23.0 mph N/A   Clear
3:35 AM 37.4 °F 31.4 °F 14.0 °F 38% 30.04 in 10.0 mi NE 8.1 mph 24.2 mph N/A   Clear
3:55 AM 37.4 °F 28.2 °F 14.0 °F 38% 30.04 in 10.0 mi ESE 16.1 mph 24.2 mph N/A   Clear
4:15 AM 37.4 °F 27.5 °F 12.2 °F 36% 30.04 in 10.0 mi ESE 18.4 mph 26.5 mph N/A   Clear
4:35 AM 37.4 °F 26.9 °F 12.2 °F 36% 30.05 in 10.0 mi ESE 20.7 mph 26.5 mph N/A   Clear
4:55 AM 37.4 °F 30.3 °F 8.6 °F 30% 30.05 in 10.0 mi SE 10.4 mph 28.8 mph N/A   Clear
5:15 AM 37.4 °F 29.8 °F 8.6 °F 30% 30.05 in 10.0 mi ESE 11.5 mph 23.0 mph N/A   Clear
5:35 AM 37.4 °F 31.4 °F 8.6 °F 30% 30.07 in 10.0 mi East 8.1 mph 21.9 mph N/A   Clear
5:55 AM 37.4 °F 28.9 °F 6.8 °F 28% 30.07 in 10.0 mi SE 13.8 mph 21.9 mph N/A   Clear
6:15 AM 37.4 °F 28.9 °F 5.0 °F 26% 30.07 in 10.0 mi ESE 13.8 mph 25.3 mph N/A   Clear
6:35 AM 37.4 °F 29.3 °F 3.2 °F 24% 30.08 in 10.0 mi SE 12.7 mph 26.5 mph N/A   Clear
6:55 AM 37.4 °F 28.9 °F 3.2 °F 24% 30.08 in 10.0 mi SE 13.8 mph 25.3 mph N/A   Clear
7:15 AM 37.4 °F 29.3 °F 3.2 °F 24% 30.09 in 10.0 mi SE 12.7 mph 26.5 mph N/A   Clear
7:35 AM 37.4 °F 28.5 °F 1.4 °F 22% 30.09 in 10.0 mi SSE 15.0 mph 23.0 mph N/A   Clear
7:55 AM 37.4 °F 27.2 °F 1.4 °F 22% 30.10 in 10.0 mi SSE 19.6 mph 27.6 mph N/A   Clear
8:15 AM 37.4 °F 29.3 °F 1.4 °F 22% 30.10 in 10.0 mi SSE 12.7 mph 24.2 mph N/A   Clear
8:35 AM 39.2 °F 30.5 °F 1.4 °F 21% 30.10 in 10.0 mi SSE 16.1 mph 24.2 mph N/A   Clear
8:55 AM 39.2 °F 30.8 °F 1.4 °F 21% 30.10 in 10.0 mi SE 15.0 mph 21.9 mph N/A   Clear
9:15 AM 41.0 °F 33.9 °F 1.4 °F 19% 30.10 in 10.0 mi SSE 12.7 mph 18.4 mph N/A   Clear
9:35 AM 41.0 °F 33.5 °F -0.4 °F 18% 30.10 in 10.0 mi SE 13.8 mph 19.6 mph N/A   Clear
9:55 AM 42.8 °F 37.0 °F -0.4 °F 16% 30.10 in 10.0 mi South 10.4 mph 16.1 mph N/A   Clear
10:15 AM 42.8 °F 38.6 °F -0.4 °F 16% 30.10 in 10.0 mi South 6.9 mph - N/A   Clear
10:35 AM 42.8 °F 38.6 °F -2.2 °F 15% 30.10 in 10.0 mi South 6.9 mph - N/A   Clear
10:55 AM 42.8 °F 37.0 °F -2.2 °F 15% 30.10 in 10.0 mi South 10.4 mph 16.1 mph N/A   Clear
11:15 AM 44.6 °F 40.7 °F -2.2 °F 14% 30.10 in 10.0 mi SSW 6.9 mph - N/A   Clear
11:35 AM 44.6 °F 41.4 °F -0.4 °F 15% 30.10 in 10.0 mi SSW 5.8 mph - N/A   Clear
11:55 AM 44.6 °F 40.2 °F -0.4 °F 15% 30.09 in 10.0 mi SSW 8.1 mph - N/A   Clear
12:15 PM 44.6 °F 40.7 °F -2.2 °F 14% 30.08 in 10.0 mi South 6.9 mph - N/A   Clear
12:35 PM 44.6 °F 41.4 °F -2.2 °F 14% 30.07 in 10.0 mi SSW 5.8 mph - N/A   Clear
12:55 PM 46.4 °F 41.9 °F -0.4 °F 14% 30.07 in 10.0 mi WSW 9.2 mph 18.4 mph N/A   Clear
1:15 PM 46.4 °F 42.4 °F -0.4 °F 14% 30.06 in 10.0 mi WSW 8.1 mph 16.1 mph N/A   Clear
1:35 PM 46.4 °F 44.3 °F -0.4 °F 14% 30.04 in 10.0 mi SW 4.6 mph - N/A   Clear
1:55 PM 46.4 °F 40.7 °F -0.4 °F 14% 30.04 in 10.0 mi SE 12.7 mph 18.4 mph N/A   Clear
2:15 PM 46.4 °F 42.4 °F -0.4 °F 14% 30.03 in 10.0 mi South 8.1 mph 21.9 mph N/A   Clear
2:35 PM 46.4 °F 42.9 °F -2.2 °F 13% 30.03 in 10.0 mi SSE 6.9 mph 25.3 mph N/A   Clear
2:55 PM 46.4 °F 39.5 °F -2.2 °F 13% 30.03 in 10.0 mi South 17.3 mph 25.3 mph N/A   Clear
3:15 PM 46.4 °F 40.4 °F -0.4 °F 14% 30.03 in 10.0 mi South 13.8 mph 26.5 mph N/A   Clear
3:35 PM 46.4 °F 41.5 °F -0.4 °F 14% 30.03 in 10.0 mi South 10.4 mph 21.9 mph N/A   Clear
3:55 PM 44.6 °F 37.8 °F -0.4 °F 15% 30.03 in 10.0 mi South 15.0 mph 31.1 mph N/A   Clear
4:15 PM 46.4 °F 40.4 °F 1.4 °F 16% 30.03 in 10.0 mi SSW 13.8 mph 24.2 mph N/A   Clear
4:35 PM 44.6 °F 38.1 °F 3.2 °F 18% 30.03 in 10.0 mi SSW 13.8 mph 27.6 mph N/A   Clear
4:55 PM 44.6 °F 41.4 °F 5.0 °F 20% 30.03 in 10.0 mi SW 5.8 mph - N/A   Clear
6:35 PM 42.8 °F 41.1 °F 10.4 °F 27% 30.05 in 10.0 mi SSE 3.5 mph - N/A   Mostly Cloudy
6:55 PM 41.0 °F 38.0 °F 10.4 °F 29% 30.05 in 10.0 mi East 4.6 mph - N/A   Mostly Cloudy
7:15 PM 41.0 °F 37.1 °F 12.2 °F 31% 30.04 in 10.0 mi ESE 5.8 mph - N/A   Scattered Clouds
7:35 PM 41.0 °F 39.0 °F 12.2 °F 31% 30.04 in 10.0 mi East 3.5 mph - N/A   Clear
7:55 PM 37.4 °F - 12.2 °F 36% 30.05 in 10.0 mi Calm Calm - N/A   Clear
8:15 PM 41.0 °F - 12.2 °F 31% 30.05 in 10.0 mi Calm Calm - N/A   Clear
8:35 PM 41.0 °F 38.0 °F 12.2 °F 31% 30.05 in 10.0 mi ESE 4.6 mph - N/A   Clear
8:55 PM 41.0 °F 35.8 °F 14.0 °F 33% 30.05 in 10.0 mi East 8.1 mph - N/A   Clear
9:15 PM 39.2 °F 34.2 °F 14.0 °F 36% 30.05 in 10.0 mi East 6.9 mph - N/A   Clear
9:35 PM 39.2 °F 33.6 °F 14.0 °F 36% 30.05 in 10.0 mi ESE 8.1 mph - N/A   Scattered Clouds
9:55 PM 37.4 °F 30.8 °F 14.0 °F 38% 30.05 in 10.0 mi ESE 9.2 mph - N/A   Clear
10:15 PM 37.4 °F - 14.0 °F 38% 30.05 in 10.0 mi Calm Calm - N/A   Clear
10:35 PM 35.6 °F 29.9 °F 15.8 °F 44% 30.04 in 10.0 mi East 6.9 mph - N/A   Clear
10:55 PM 35.6 °F - 14.0 °F 41% 30.05 in 10.0 mi Calm Calm - N/A   Clear
11:15 PM 35.6 °F 30.7 °F 14.0 °F 41% 30.04 in 10.0 mi East 5.8 mph - N/A   Clear
11:35 PM 33.8 °F 29.6 °F 14.0 °F 44% 30.04 in 10.0 mi East 4.6 mph - N/A   Clear
11:55 PM 37.4 °F 34.9 °F 10.4 °F 33% 30.04 in 10.0 mi East 3.5 mph - N/A   Mostly Cloudy